Time;durP1;ratioP1;P1;durP2;ratioP2;P2;SDS_P1;SDS_P2;PMS_P1;PMS_P2;Temp;Humidity;BMP_temperature;BMP_pressure;BME280_temperature;BME280_humidity;BME280_pressure;Samples;Min_cycle;Max_cycle;Signal;HPM_P1;HPM_P2
2021/03/31 00:02:15;;;;;;;7.10;6.40;;;10.70;95.30;;;;;;5025038;28;20481;-70
2021/03/31 00:04:42;;;;;;;11.00;6.13;;;10.70;95.60;;;;;;5022451;28;20467;-70
2021/03/31 00:07:10;;;;;;;8.83;6.30;;;10.70;96.20;;;;;;5019168;28;20557;-70
2021/03/31 00:09:39;;;;;;;9.20;6.30;;;10.70;95.80;;;;;;5015162;28;20472;-70
2021/03/31 00:12:08;;;;;;;11.20;6.90;;;10.60;95.70;;;;;;5004692;28;20509;-70
2021/03/31 00:14:35;;;;;;;9.63;6.37;;;10.60;95.80;;;;;;5023526;28;20445;-70
2021/03/31 00:17:02;;;;;;;13.83;6.97;;;10.60;95.60;;;;;;5021631;28;20449;-70
2021/03/31 00:19:29;;;;;;;8.30;6.50;;;10.50;95.50;;;;;;5034077;28;20438;-70
2021/03/31 00:21:58;;;;;;;12.50;6.53;;;10.50;95.60;;;;;;5011378;28;20445;-70
2021/03/31 00:24:24;;;;;;;8.20;7.17;;;10.40;95.70;;;;;;5034217;28;20525;-70
2021/03/31 00:26:51;;;;;;;8.33;6.40;;;10.40;96.10;;;;;;5023346;28;20459;-69
2021/03/31 00:29:17;;;;;;;10.83;6.73;;;10.40;96.40;;;;;;5014292;28;20428;-70
2021/03/31 00:31:43;;;;;;;9.13;6.83;;;10.30;96.50;;;;;;5026951;28;20515;-70
2021/03/31 00:34:09;;;;;;;13.77;7.13;;;10.30;96.70;;;;;;5026526;28;20781;-70
2021/03/31 00:36:35;;;;;;;7.03;6.33;;;10.30;96.60;;;;;;5023415;28;20499;-69
2021/03/31 00:39:01;;;;;;;11.50;7.17;;;10.30;96.90;;;;;;5019568;28;20501;-70
2021/03/31 00:41:28;;;;;;;7.80;6.50;;;10.30;97.30;;;;;;5010972;28;20820;-70
2021/03/31 00:43:54;;;;;;;6.40;5.90;;;10.30;97.40;;;;;;5018653;28;20448;-70
2021/03/31 00:46:20;;;;;;;7.50;6.60;;;10.30;97.30;;;;;;5003679;28;20611;-70
2021/03/31 00:48:46;;;;;;;7.20;6.17;;;10.30;97.40;;;;;;5019413;28;20427;-70
2021/03/31 00:51:13;;;;;;;6.80;6.17;;;10.30;97.40;;;;;;5014380;28;20421;-70
2021/03/31 00:53:42;;;;;;;7.53;6.20;;;10.30;97.70;;;;;;5021603;28;20441;-70
2021/03/31 00:56:09;;;;;;;8.77;6.77;;;10.20;97.80;;;;;;5028696;28;20430;-70
2021/03/31 00:58:37;;;;;;;6.67;5.90;;;10.20;97.90;;;;;;5015802;28;20913;-70
2021/03/31 01:01:03;;;;;;;9.00;6.33;;;10.10;98.30;;;;;;5006658;28;20436;-69
2021/03/31 01:03:30;;;;;;;9.40;6.30;;;10.10;98.20;;;;;;5016183;28;20463;-70
2021/03/31 01:05:56;;;;;;;8.23;6.60;;;10.10;98.80;;;;;;5009850;28;20504;-70
2021/03/31 01:08:22;;;;;;;6.63;6.03;;;10.00;99.20;;;;;;5025982;28;20421;-68
2021/03/31 01:10:57;;;;;;;9.07;6.63;;;10.00;99.50;;;;;;5028263;28;20435;-70
2021/03/31 01:14:01;;;;;;;7.77;6.83;;;10.00;99.60;;;;;;5005237;28;20528;-70
2021/03/31 01:16:42;;;;;;;7.07;6.20;;;9.90;99.90;;;;;;5007006;28;20945;-70
2021/03/31 01:19:36;;;;;;;7.60;6.40;;;9.90;99.90;;;;;;5013598;28;20428;-70
2021/03/31 01:22:27;;;;;;;7.53;6.40;;;9.80;99.90;;;;;;5029443;28;20575;-70
2021/03/31 01:25:21;;;;;;;13.10;6.17;;;9.80;99.90;;;;;;5009555;28;20427;-70
2021/03/31 01:28:10;;;;;;;6.53;5.93;;;9.80;99.90;;;;;;5016457;28;20530;-70
2021/03/31 01:31:02;;;;;;;8.07;6.93;;;9.70;99.90;;;;;;5026462;28;21034;-70
2021/03/31 01:33:57;;;;;;;7.30;6.70;;;9.70;99.90;;;;;;5032616;28;20459;-70
2021/03/31 01:36:25;;;;;;;8.50;7.60;;;9.60;99.90;;;;;;5023372;28;20435;-70
2021/03/31 01:38:57;;;;;;;7.57;6.53;;;9.60;99.90;;;;;;5021289;28;20455;-70
2021/03/31 01:41:24;;;;;;;8.83;6.63;;;9.60;99.90;;;;;;5031289;28;20794;-70
2021/03/31 01:43:55;;;;;;;9.63;6.50;;;9.50;99.90;;;;;;5031249;28;20513;-69
2021/03/31 01:46:32;;;;;;;7.13;6.53;;;9.50;99.90;;;;;;5007806;28;20474;-70
2021/03/31 01:49:02;;;;;;;7.70;6.87;;;9.50;99.90;;;;;;5005209;28;20427;-69
2021/03/31 01:51:33;;;;;;;16.53;7.13;;;9.50;99.90;;;;;;5026444;28;20426;-70
2021/03/31 01:54:00;;;;;;;8.10;6.80;;;9.40;99.90;;;;;;5029542;28;20440;-69
2021/03/31 01:56:27;;;;;;;7.17;6.43;;;9.40;99.90;;;;;;5020495;28;20846;-70
2021/03/31 01:58:55;;;;;;;8.50;6.63;;;9.40;99.90;;;;;;5029106;28;20808;-70
2021/03/31 02:01:22;;;;;;;7.10;6.50;;;9.40;99.90;;;;;;5026549;28;20433;-70
2021/03/31 02:03:53;;;;;;;7.43;6.73;;;9.40;99.90;;;;;;5025056;28;20509;-70
2021/03/31 02:06:19;;;;;;;7.27;6.57;;;9.30;99.90;;;;;;5029177;28;20463;-70
2021/03/31 02:08:47;;;;;;;7.50;6.80;;;9.30;99.90;;;;;;5017872;28;20460;-70
2021/03/31 02:11:15;;;;;;;8.20;6.93;;;9.30;99.90;;;;;;5029366;28;20474;-70
2021/03/31 02:13:41;;;;;;;8.97;7.07;;;9.30;99.90;;;;;;5021847;28;20790;-70
2021/03/31 02:16:09;;;;;;;14.03;7.03;;;9.30;99.90;;;;;;5030795;28;20858;-70
2021/03/31 02:18:36;;;;;;;7.90;7.10;;;9.30;99.90;;;;;;5016568;28;20437;-70
2021/03/31 02:21:04;;;;;;;8.37;6.10;;;9.20;99.90;;;;;;5031471;28;20427;-70
2021/03/31 02:23:34;;;;;;;7.60;6.13;;;9.20;99.90;;;;;;5029145;28;20870;-69
2021/03/31 02:26:02;;;;;;;7.57;6.73;;;9.10;99.90;;;;;;5013264;28;20988;-70
2021/03/31 02:28:31;;;;;;;8.30;7.17;;;9.10;99.90;;;;;;5007197;28;20423;-70
2021/03/31 02:30:57;;;;;;;8.20;6.60;;;9.10;99.90;;;;;;5023833;28;20424;-70
2021/03/31 02:33:27;;;;;;;8.17;6.80;;;9.10;99.90;;;;;;5013241;28;20460;-70
2021/03/31 02:35:54;;;;;;;6.70;6.00;;;9.00;99.90;;;;;;5029970;28;20447;-69
2021/03/31 02:38:22;;;;;;;8.00;6.57;;;9.00;99.90;;;;;;5014353;28;20915;-70
2021/03/31 02:40:51;;;;;;;7.37;6.63;;;9.00;99.90;;;;;;5028674;28;20427;-69
2021/03/31 02:43:19;;;;;;;8.70;6.80;;;9.00;99.90;;;;;;5019440;28;20907;-70
2021/03/31 02:45:50;;;;;;;10.50;6.83;;;9.00;99.90;;;;;;5028597;28;20893;-69
2021/03/31 02:48:18;;;;;;;7.80;7.00;;;9.00;99.90;;;;;;5024242;28;20432;-70
2021/03/31 02:50:47;;;;;;;9.73;6.80;;;9.00;99.90;;;;;;5022508;28;20566;-70
2021/03/31 02:53:15;;;;;;;8.77;7.07;;;9.00;99.90;;;;;;5022700;28;20454;-70
2021/03/31 02:55:42;;;;;;;10.63;6.70;;;8.90;99.90;;;;;;5012160;28;20427;-70
2021/03/31 02:58:10;;;;;;;8.07;7.33;;;8.90;99.90;;;;;;4994803;28;20473;-70
2021/03/31 03:00:37;;;;;;;10.97;7.70;;;8.90;99.90;;;;;;5027319;28;20428;-70
2021/03/31 03:03:03;;;;;;;9.10;7.00;;;8.90;99.90;;;;;;5012634;28;20443;-70
2021/03/31 03:05:30;;;;;;;7.40;6.70;;;8.90;99.90;;;;;;5031241;28;20828;-70
2021/03/31 03:07:58;;;;;;;8.33;7.53;;;8.90;99.90;;;;;;5018476;28;20481;-68
2021/03/31 03:10:25;;;;;;;10.07;6.60;;;8.90;99.90;;;;;;5001372;28;20529;-69
2021/03/31 03:12:56;;;;;;;7.23;6.50;;;8.90;99.90;;;;;;5030247;28;20793;-70
2021/03/31 03:15:25;;;;;;;9.87;6.97;;;8.90;99.90;;;;;;5022856;28;20459;-69
2021/03/31 03:17:52;;;;;;;8.00;6.40;;;8.90;99.90;;;;;;5030317;28;20427;-70
2021/03/31 03:20:19;;;;;;;7.93;7.10;;;8.90;99.90;;;;;;5011104;28;20510;-70
2021/03/31 03:22:48;;;;;;;7.83;6.17;;;8.80;99.90;;;;;;5024623;28;20448;-69
2021/03/31 03:25:17;;;;;;;7.67;6.87;;;8.80;99.90;;;;;;5022811;28;20996;-69
2021/03/31 03:27:45;;;;;;;12.77;6.70;;;8.90;99.90;;;;;;5018604;28;20500;-70
2021/03/31 03:30:14;;;;;;;8.70;7.00;;;8.90;99.90;;;;;;5013685;28;20477;-69
2021/03/31 03:32:43;;;;;;;11.63;7.50;;;8.90;99.90;;;;;;5029041;28;20458;-69
2021/03/31 03:35:14;;;;;;;8.03;7.30;;;8.80;99.90;;;;;;5012240;28;20423;-70
2021/03/31 03:37:43;;;;;;;8.73;6.63;;;8.80;99.90;;;;;;5027545;28;20427;-69
2021/03/31 03:40:10;;;;;;;6.93;5.77;;;8.80;99.90;;;;;;5021371;28;20917;-70
2021/03/31 03:42:37;;;;;;;12.20;7.20;;;8.70;99.90;;;;;;5030245;28;20450;-69
2021/03/31 03:45:06;;;;;;;13.47;7.80;;;8.70;99.90;;;;;;5012043;28;20457;-69
2021/03/31 03:47:33;;;;;;;7.47;6.50;;;8.60;99.90;;;;;;5005673;28;20845;-69
2021/03/31 03:50:01;;;;;;;8.30;7.50;;;8.60;99.90;;;;;;5011454;28;20430;-70
2021/03/31 03:52:28;;;;;;;8.97;7.27;;;8.60;99.90;;;;;;5022199;28;20681;-70
2021/03/31 03:54:55;;;;;;;9.50;6.27;;;8.60;99.90;;;;;;5010462;28;20940;-69
2021/03/31 03:57:32;;;;;;;10.30;7.77;;;8.60;99.90;;;;;;5013405;28;20826;-70
2021/03/31 03:59:58;;;;;;;12.00;8.50;;;8.60;99.90;;;;;;5028649;28;20497;-69
2021/03/31 04:02:24;;;;;;;9.40;7.80;;;8.60;99.90;;;;;;5025152;28;20462;-70
2021/03/31 04:04:50;;;;;;;9.60;7.77;;;8.60;99.90;;;;;;5030191;28;20523;-70
2021/03/31 04:07:17;;;;;;;8.60;7.90;;;8.50;99.90;;;;;;5020106;28;20473;-69
2021/03/31 04:09:46;;;;;;;10.73;7.57;;;8.50;99.90;;;;;;5008507;28;20467;-70
2021/03/31 04:12:16;;;;;;;8.50;7.60;;;8.40;99.90;;;;;;5030409;28;20484;-70
2021/03/31 04:14:44;;;;;;;12.03;6.80;;;8.40;99.90;;;;;;5023103;28;20517;-70
2021/03/31 04:17:14;;;;;;;8.17;6.80;;;8.40;99.90;;;;;;5015122;28;20429;-70
2021/03/31 04:19:45;;;;;;;8.77;6.77;;;8.40;99.90;;;;;;5027658;28;20435;-70
2021/03/31 04:22:13;;;;;;;7.60;6.83;;;8.40;99.90;;;;;;5028471;28;20420;-70
2021/03/31 04:24:39;;;;;;;10.63;8.20;;;8.40;99.90;;;;;;5012155;28;20443;-70
2021/03/31 04:27:12;;;;;;;8.60;7.80;;;8.40;99.90;;;;;;5012909;28;20472;-70
2021/03/31 04:29:41;;;;;;;9.50;8.53;;;8.40;99.90;;;;;;4997700;28;20852;-70
2021/03/31 04:32:14;;;;;;;8.97;7.30;;;8.40;99.90;;;;;;5027597;28;20431;-70
2021/03/31 04:34:40;;;;;;;14.77;8.53;;;8.40;99.90;;;;;;5023732;28;20421;-70
2021/03/31 04:37:07;;;;;;;8.33;7.50;;;8.50;99.90;;;;;;5015827;28;20485;-69
2021/03/31 04:39:33;;;;;;;12.33;7.53;;;8.50;99.90;;;;;;5004079;28;20428;-70
2021/03/31 04:41:59;;;;;;;8.43;7.60;;;8.50;99.90;;;;;;5027124;28;20476;-69
2021/03/31 04:44:26;;;;;;;8.50;7.70;;;8.50;99.90;;;;;;4988520;28;20446;-70
2021/03/31 04:46:52;;;;;;;8.00;7.20;;;8.50;99.90;;;;;;5030970;28;20459;-70
2021/03/31 04:49:18;;;;;;;9.53;8.50;;;8.40;99.90;;;;;;5022085;28;20428;-71
2021/03/31 04:51:44;;;;;;;9.30;8.37;;;8.50;99.90;;;;;;5008237;28;20423;-69
2021/03/31 04:54:12;;;;;;;8.40;7.20;;;8.40;99.90;;;;;;5032794;28;20465;-69
2021/03/31 04:56:38;;;;;;;8.90;8.10;;;8.40;99.90;;;;;;5006463;28;20428;-68
2021/03/31 04:59:04;;;;;;;11.57;8.50;;;8.40;99.90;;;;;;5023906;28;20776;-69
2021/03/31 05:01:31;;;;;;;11.27;8.67;;;8.40;99.90;;;;;;5031527;28;20429;-69
2021/03/31 05:03:57;;;;;;;8.73;7.83;;;8.40;99.90;;;;;;5031111;28;20462;-69
2021/03/31 05:06:24;;;;;;;9.00;8.10;;;8.40;99.90;;;;;;5002865;28;20463;-69
2021/03/31 05:08:50;;;;;;;9.93;8.30;;;8.30;99.90;;;;;;5019890;28;20427;-69
2021/03/31 05:11:16;;;;;;;12.60;8.60;;;8.30;99.90;;;;;;5032416;28;20438;-68
2021/03/31 05:13:42;;;;;;;9.13;8.10;;;8.30;99.90;;;;;;5027512;28;20522;-69
2021/03/31 05:16:08;;;;;;;7.53;6.77;;;8.30;99.90;;;;;;5008206;28;20973;-69
2021/03/31 05:18:35;;;;;;;11.50;8.00;;;8.30;99.90;;;;;;5027776;28;20434;-69
2021/03/31 05:21:01;;;;;;;9.43;8.00;;;8.20;99.90;;;;;;5031871;28;20948;-69
2021/03/31 05:23:27;;;;;;;9.87;8.87;;;8.20;99.90;;;;;;5015480;28;20962;-69
2021/03/31 05:25:53;;;;;;;9.30;8.10;;;8.20;99.90;;;;;;5025578;28;20554;-69
2021/03/31 05:28:19;;;;;;;11.87;8.53;;;8.20;99.90;;;;;;5026681;28;20493;-69
2021/03/31 05:30:46;;;;;;;9.53;8.40;;;8.20;99.90;;;;;;5010754;28;20431;-69
2021/03/31 05:33:12;;;;;;;13.00;8.97;;;8.30;99.90;;;;;;5022884;28;20447;-69
2021/03/31 05:35:38;;;;;;;10.90;8.13;;;8.30;99.90;;;;;;5031256;28;20434;-69
2021/03/31 05:38:04;;;;;;;10.27;9.20;;;8.30;99.90;;;;;;5020682;28;20426;-69
2021/03/31 05:40:32;;;;;;;13.00;8.50;;;8.30;99.90;;;;;;5028144;28;20427;-69
2021/03/31 05:42:59;;;;;;;9.33;8.30;;;8.30;99.90;;;;;;5017285;28;20455;-68
2021/03/31 05:45:28;;;;;;;9.93;8.83;;;8.40;99.90;;;;;;5015435;28;20557;-68
2021/03/31 05:47:55;;;;;;;10.27;8.90;;;8.40;99.90;;;;;;5014458;28;20459;-68
2021/03/31 05:50:21;;;;;;;10.53;9.00;;;8.50;99.90;;;;;;5026657;28;20486;-69
2021/03/31 05:52:47;;;;;;;9.73;8.77;;;8.50;99.90;;;;;;5019066;28;20557;-68
2021/03/31 05:55:17;;;;;;;10.90;9.20;;;8.50;99.90;;;;;;5026193;28;20428;-68
2021/03/31 05:57:44;;;;;;;12.83;9.30;;;8.60;99.90;;;;;;5019685;28;20779;-68
2021/03/31 06:00:19;;;;;;;11.40;8.87;;;8.70;99.90;;;;;;5021397;28;20470;-68
2021/03/31 06:02:47;;;;;;;10.63;8.93;;;8.70;99.90;;;;;;5019619;28;20545;-68
2021/03/31 06:05:14;;;;;;;9.77;8.87;;;8.70;99.90;;;;;;5013911;28;20483;-68
2021/03/31 06:07:46;;;;;;;12.00;9.10;;;8.80;99.90;;;;;;5025658;28;20443;-69
2021/03/31 06:10:18;;;;;;;12.43;9.43;;;8.90;99.90;;;;;;5031496;28;20454;-68
2021/03/31 06:12:51;;;;;;;14.50;9.30;;;8.90;99.90;;;;;;5023833;28;20787;-68
2021/03/31 06:15:28;;;;;;;9.60;8.63;;;9.00;99.90;;;;;;5016110;28;20431;-69
2021/03/31 06:18:00;;;;;;;10.00;9.10;;;9.10;99.90;;;;;;5029658;28;20438;-68
2021/03/31 06:20:47;;;;;;;15.87;10.10;;;9.20;99.90;;;;;;5022554;28;20459;-68
2021/03/31 06:26:23;;;;;;;10.23;9.30;;;9.40;99.90;;;;;;5020226;28;20481;-68
2021/03/31 06:29:09;;;;;;;12.20;8.83;;;9.60;99.90;;;;;;5022997;28;20523;-68
2021/03/31 06:31:37;;;;;;;16.70;9.27;;;9.70;99.90;;;;;;5016339;28;20841;-68
2021/03/31 06:34:16;;;;;;;14.00;8.40;;;9.80;99.90;;;;;;5028864;28;20439;-68
2021/03/31 06:36:49;;;;;;;12.93;9.10;;;9.90;99.90;;;;;;5027186;28;20435;-69
2021/03/31 06:39:17;;;;;;;9.87;7.60;;;10.00;99.90;;;;;;5022452;28;20491;-68
2021/03/31 06:42:24;;;;;;;11.47;9.33;;;10.20;99.90;;;;;;5025497;28;20437;-71
2021/03/31 06:45:00;;;;;;;12.70;9.70;;;10.40;99.90;;;;;;5023124;28;20786;-73
2021/03/31 06:50:00;;;;;;;12.50;8.30;;;10.80;96.30;;;;;;5046424;28;20437;-73
2021/03/31 06:52:26;;;;;;;11.50;9.20;;;11.10;95.60;;;;;;5014080;28;20506;-67
2021/03/31 06:54:59;;;;;;;13.83;11.30;;;11.30;95.20;;;;;;5031047;28;20498;-68
2021/03/31 06:57:30;;;;;;;11.00;10.00;;;11.50;94.50;;;;;;5008335;28;20472;-73
2021/03/31 07:00:19;;;;;;;14.33;10.20;;;11.70;94.30;;;;;;5032030;28;20434;-71
2021/03/31 07:02:50;;;;;;;14.13;9.60;;;11.90;93.70;;;;;;5022066;28;20507;-73
2021/03/31 07:05:18;;;;;;;12.37;9.90;;;12.10;92.70;;;;;;5031796;28;20441;-71
2021/03/31 07:07:45;;;;;;;13.03;10.33;;;12.30;92.30;;;;;;5023582;28;20936;-71
2021/03/31 07:10:15;;;;;;;12.20;10.73;;;12.50;91.00;;;;;;5018383;28;20466;-69
2021/03/31 07:12:47;;;;;;;14.20;9.60;;;12.70;90.30;;;;;;5020239;28;20448;-69
2021/03/31 07:15:24;;;;;;;10.47;9.47;;;12.90;89.50;;;;;;4998935;28;20436;-69
2021/03/31 07:17:55;;;;;;;11.27;10.17;;;13.00;88.20;;;;;;5017395;28;20441;-69
2021/03/31 07:20:23;;;;;;;11.50;9.60;;;13.20;88.00;;;;;;5030604;28;20442;-69
2021/03/31 07:22:53;;;;;;;12.90;11.53;;;13.30;86.90;;;;;;5026581;28;20451;-69
2021/03/31 07:25:22;;;;;;;11.13;9.57;;;13.50;86.30;;;;;;5029392;28;20427;-69
2021/03/31 07:27:49;;;;;;;16.10;10.40;;;13.60;84.70;;;;;;5031829;28;20433;-69
2021/03/31 07:30:22;;;;;;;11.77;10.23;;;13.70;82.10;;;;;;4992228;28;20564;-69
2021/03/31 07:32:55;;;;;;;11.37;10.40;;;13.90;80.50;;;;;;5030853;28;20447;-69
2021/03/31 07:35:33;;;;;;;13.13;9.90;;;14.20;80.00;;;;;;5030869;28;20436;-69
2021/03/31 07:38:01;;;;;;;12.87;10.40;;;14.30;79.30;;;;;;5031793;28;20436;-68
2021/03/31 07:40:32;;;;;;;11.20;9.73;;;14.50;79.10;;;;;;5030983;28;21007;-69
2021/03/31 07:43:23;;;;;;;14.70;10.30;;;14.50;78.30;;;;;;5030521;28;20453;-69
2021/03/31 07:46:16;;;;;;;11.70;10.50;;;14.70;77.00;;;;;;4999697;28;20490;-69
2021/03/31 07:48:44;;;;;;;12.10;10.27;;;14.80;77.00;;;;;;5031929;28;20791;-69
2021/03/31 07:51:15;;;;;;;12.03;10.83;;;15.00;73.90;;;;;;5030338;28;20772;-68
2021/03/31 07:53:46;;;;;;;12.50;9.37;;;15.20;73.60;;;;;;5015727;28;20551;-69
2021/03/31 07:56:13;;;;;;;11.03;9.50;;;15.30;72.60;;;;;;4994606;28;20433;-69
2021/03/31 07:58:39;;;;;;;16.37;10.17;;;15.40;71.20;;;;;;5027341;28;20932;-68
2021/03/31 08:01:09;;;;;;;12.00;10.73;;;15.70;71.50;;;;;;5026232;28;20790;-68
2021/03/31 08:03:38;;;;;;;11.83;10.40;;;15.80;70.70;;;;;;5022053;28;20455;-69
2021/03/31 08:06:09;;;;;;;15.07;10.83;;;16.00;69.80;;;;;;5009898;28;20468;-69
2021/03/31 08:08:46;;;;;;;11.53;10.40;;;16.10;67.70;;;;;;5026307;28;20450;-69
2021/03/31 08:11:14;;;;;;;12.30;11.10;;;16.30;66.90;;;;;;5029933;28;20954;-68
2021/03/31 08:13:42;;;;;;;19.00;11.47;;;16.50;67.20;;;;;;5031847;28;20451;-69
2021/03/31 08:16:26;;;;;;;14.20;12.13;;;16.70;66.40;;;;;;5030425;28;20438;-69
2021/03/31 08:18:56;;;;;;;12.97;11.47;;;16.90;63.00;;;;;;5029474;28;20462;-67
2021/03/31 08:21:27;;;;;;;11.70;10.20;;;17.00;62.20;;;;;;5032672;28;20473;-68
2021/03/31 08:24:15;;;;;;;13.03;11.03;;;17.20;62.70;;;;;;5017348;28;20537;-69
2021/03/31 08:26:46;;;;;;;12.80;10.70;;;17.30;60.00;;;;;;5026509;28;20483;-69
2021/03/31 08:29:18;;;;;;;12.23;10.93;;;17.40;59.90;;;;;;5017444;28;20449;-69
2021/03/31 08:32:08;;;;;;;13.03;10.97;;;17.60;58.60;;;;;;5028660;23;21116;-73
2021/03/31 08:34:35;;;;;;;17.23;10.67;;;17.70;59.30;;;;;;4993589;28;20492;-73
2021/03/31 08:37:06;;;;;;;12.40;10.20;;;17.90;58.00;;;;;;4999699;28;20442;-73
2021/03/31 08:39:33;;;;;;;17.33;11.97;;;18.00;57.90;;;;;;5005215;28;20439;-73
2021/03/31 08:42:00;;;;;;;14.10;12.60;;;18.20;58.10;;;;;;4991082;28;20446;-72
2021/03/31 08:44:37;;;;;;;12.50;11.20;;;18.40;57.10;;;;;;4979945;28;20465;-73
2021/03/31 08:47:15;;;;;;;14.00;12.53;;;18.50;56.90;;;;;;5003405;28;20473;-73
2021/03/31 08:49:43;;;;;;;13.67;10.83;;;18.70;55.90;;;;;;4994158;28;20468;-73
2021/03/31 08:52:14;;;;;;;13.43;11.77;;;18.80;56.60;;;;;;4988312;28;20807;-74
2021/03/31 08:54:47;;;;;;;13.77;11.47;;;19.00;55.60;;;;;;4980706;28;20534;-74
2021/03/31 08:57:22;;;;;;;15.67;12.10;;;19.20;55.20;;;;;;4992744;28;20794;-73
2021/03/31 08:59:50;;;;;;;13.00;11.70;;;19.30;53.70;;;;;;4979267;28;20518;-74
2021/03/31 09:02:19;;;;;;;12.43;11.13;;;19.40;52.40;;;;;;4998936;28;20463;-74
2021/03/31 09:04:46;;;;;;;14.27;11.27;;;19.50;52.30;;;;;;4999835;28;20439;-74
2021/03/31 09:07:14;;;;;;;12.50;11.17;;;19.60;53.00;;;;;;4992130;28;20522;-74
2021/03/31 09:09:42;;;;;;;11.93;10.40;;;19.80;52.00;;;;;;5001816;28;20943;-74
2021/03/31 09:12:13;;;;;;;13.20;11.57;;;20.00;51.50;;;;;;4990451;28;20462;-74
2021/03/31 09:14:42;;;;;;;14.67;11.73;;;20.20;50.80;;;;;;4994932;28;20495;-74
2021/03/31 09:17:28;;;;;;;14.23;12.40;;;20.40;50.60;;;;;;4994698;28;20558;-74
2021/03/31 09:20:05;;;;;;;13.20;12.00;;;20.60;50.80;;;;;;5001227;28;20521;-74
2021/03/31 09:22:32;;;;;;;12.47;10.93;;;20.80;50.40;;;;;;4976985;28;20457;-74
2021/03/31 09:25:00;;;;;;;13.57;11.77;;;21.00;48.50;;;;;;4968251;28;20450;-74
2021/03/31 09:27:33;;;;;;;13.50;12.23;;;21.10;47.10;;;;;;5007195;28;20562;-77
2021/03/31 09:30:04;;;;;;;13.60;11.60;;;21.10;47.40;;;;;;4981126;28;20820;-76
2021/03/31 09:32:37;;;;;;;13.53;12.17;;;21.30;47.20;;;;;;4994903;28;20496;-76
2021/03/31 09:35:14;;;;;;;13.73;11.60;;;21.40;47.20;;;;;;5002607;28;20511;-78
2021/03/31 09:37:50;;;;;;;12.13;11.00;;;21.60;45.50;;;;;;4962251;28;20931;-78
2021/03/31 09:40:25;;;;;;;12.97;11.43;;;21.70;45.80;;;;;;5000321;28;20438;-81
2021/03/31 09:43:00;;;;;;;14.50;12.40;;;21.90;45.70;;;;;;4979233;28;20480;-75
2021/03/31 09:45:28;;;;;;;13.20;11.40;;;22.10;44.10;;;;;;4986521;28;20439;-77
2021/03/31 09:47:56;;;;;;;12.43;11.20;;;22.20;44.10;;;;;;4990064;28;20432;-76
2021/03/31 09:50:27;;;;;;;13.73;11.40;;;22.40;42.80;;;;;;5002371;28;20498;-77
2021/03/31 09:52:59;;;;;;;16.03;12.03;;;22.60;44.00;;;;;;5003908;28;21035;-77
2021/03/31 09:55:31;;;;;;;12.60;11.27;;;22.90;44.10;;;;;;4989271;28;20464;-77
2021/03/31 09:57:58;;;;;;;18.10;11.67;;;23.10;42.80;;;;;;4999016;28;20432;-78
2021/03/31 10:00:25;;;;;;;13.97;12.87;;;23.30;42.70;;;;;;4980780;28;20436;-76
2021/03/31 10:02:52;;;;;;;17.83;12.00;;;23.40;42.00;;;;;;4997881;28;20506;-76
2021/03/31 10:05:23;;;;;;;13.77;12.00;;;23.40;41.80;;;;;;4996927;28;20436;-80
2021/03/31 10:07:59;;;;;;;12.47;11.27;;;23.50;41.30;;;;;;4985790;28;20504;-78
2021/03/31 10:10:44;;;;;;;13.23;11.93;;;23.70;41.80;;;;;;5002556;28;21041;-77
2021/03/31 10:13:15;;;;;;;15.63;11.77;;;23.90;41.10;;;;;;4996789;28;20446;-76
2021/03/31 10:16:03;;;;;;;13.60;12.20;;;24.10;40.80;;;;;;5011592;28;20447;-77
2021/03/31 10:18:32;;;;;;;13.07;11.70;;;24.20;38.70;;;;;;5010059;28;20458;-77
2021/03/31 10:21:01;;;;;;;12.40;11.50;;;24.20;40.10;;;;;;5004567;28;20440;-73
2021/03/31 10:23:36;;;;;;;13.77;12.57;;;24.40;39.70;;;;;;4992225;28;20453;-73
2021/03/31 10:26:20;;;;;;;13.37;12.00;;;24.60;39.00;;;;;;4993019;28;20500;-73
2021/03/31 10:28:51;;;;;;;11.93;10.73;;;24.70;40.10;;;;;;5001685;28;20468;-74
2021/03/31 10:31:39;;;;;;;13.17;10.40;;;25.00;37.60;;;;;;4998649;28;20492;-73
2021/03/31 10:34:09;;;;;;;11.30;10.27;;;25.00;37.10;;;;;;4997492;28;21028;-73
2021/03/31 10:51:26;;;;;;;13.07;10.73;;;24.90;36.30;;;;;;4989666;28;20435;-76
2021/03/31 10:53:55;;;;;;;12.40;10.83;;;25.10;37.50;;;;;;4989580;28;20786;-76
2021/03/31 10:56:25;;;;;;;12.70;11.60;;;25.40;36.40;;;;;;5001716;28;20455;-76
2021/03/31 10:58:51;;;;;;;11.17;10.17;;;25.60;35.60;;;;;;4991790;28;20473;-76
2021/03/31 11:01:17;;;;;;;11.60;10.50;;;25.80;37.00;;;;;;5000298;28;20458;-76
2021/03/31 11:03:43;;;;;;;11.70;10.10;;;26.10;35.70;;;;;;4974984;28;20473;-77
2021/03/31 11:06:12;;;;;;;12.13;10.10;;;26.30;35.20;;;;;;4988372;28;20484;-76
2021/03/31 11:08:38;;;;;;;12.30;11.07;;;26.20;34.00;;;;;;4991826;28;20455;-76
2021/03/31 11:11:09;;;;;;;13.40;11.90;;;26.10;35.60;;;;;;4999287;28;20441;-76
2021/03/31 11:13:36;;;;;;;13.73;12.50;;;26.20;36.40;;;;;;4988770;28;20453;-78
2021/03/31 11:16:08;;;;;;;13.10;11.90;;;26.40;35.90;;;;;;4993172;28;20496;-76
2021/03/31 11:27:10;;;;;;;11.00;9.87;;;26.70;34.30;;;;;;4981492;28;20469;-75
2021/03/31 11:29:40;;;;;;;12.10;11.17;;;26.90;34.60;;;;;;4970497;28;21973;-74
2021/03/31 11:32:06;;;;;;;11.90;10.17;;;27.00;34.10;;;;;;5001420;28;20475;-75
2021/03/31 11:34:34;;;;;;;11.47;10.50;;;27.20;35.80;;;;;;4996228;28;20456;-74
2021/03/31 11:37:01;;;;;;;11.43;9.60;;;27.40;33.80;;;;;;5004378;28;20670;-76
2021/03/31 11:39:29;;;;;;;12.03;11.03;;;27.40;33.80;;;;;;4998677;28;20961;-76
2021/03/31 11:41:55;;;;;;;14.30;11.57;;;27.50;33.70;;;;;;4987890;28;20491;-76
2021/03/31 11:44:22;;;;;;;12.07;10.60;;;27.50;33.20;;;;;;4989023;28;20436;-76
2021/03/31 11:46:47;;;;;;;12.17;11.00;;;27.50;33.50;;;;;;4991932;28;20464;-75
2021/03/31 11:49:14;;;;;;;11.87;10.67;;;27.60;34.50;;;;;;4986639;28;20484;-74
2021/03/31 11:51:42;;;;;;;12.43;11.50;;;27.80;31.60;;;;;;4999535;28;21070;-76
2021/03/31 11:54:13;;;;;;;12.07;11.00;;;27.90;32.30;;;;;;4989427;28;20457;-76
2021/03/31 11:56:40;;;;;;;11.00;10.10;;;27.90;33.30;;;;;;4991983;28;20952;-76
2021/03/31 11:59:08;;;;;;;12.10;11.20;;;27.90;33.40;;;;;;4978392;28;20768;-75
2021/03/31 12:01:35;;;;;;;11.30;10.27;;;28.10;32.20;;;;;;4998828;28;20432;-76
2021/03/31 12:04:04;;;;;;;10.53;9.50;;;28.30;31.80;;;;;;4995276;28;20460;-76
2021/03/31 12:06:33;;;;;;;13.27;11.97;;;28.10;31.50;;;;;;4993654;28;20988;-76
2021/03/31 12:09:07;;;;;;;11.47;10.60;;;28.20;31.70;;;;;;5000485;28;20434;-75
2021/03/31 12:11:33;;;;;;;12.03;11.13;;;28.10;31.70;;;;;;4981909;28;20499;-76
2021/03/31 12:14:01;;;;;;;13.10;11.90;;;28.30;33.60;;;;;;4991093;28;21096;-76
2021/03/31 12:16:30;;;;;;;10.97;10.07;;;28.50;30.30;;;;;;4994590;28;20429;-76
2021/03/31 12:18:59;;;;;;;13.93;12.40;;;28.50;31.40;;;;;;5001359;28;20434;-75
2021/03/31 12:21:30;;;;;;;13.73;12.30;;;28.50;29.90;;;;;;5003831;28;21078;-76
2021/03/31 12:23:56;;;;;;;11.00;10.10;;;28.40;30.00;;;;;;5003556;28;21020;-80
2021/03/31 12:26:22;;;;;;;11.10;10.20;;;28.00;30.50;;;;;;5000660;28;20487;-77
2021/03/31 12:28:55;;;;;;;14.40;11.33;;;27.70;30.70;;;;;;4992659;28;20782;-75
2021/03/31 12:31:21;;;;;;;12.50;10.77;;;27.50;32.00;;;;;;4973014;28;20468;-76
2021/03/31 12:33:47;;;;;;;10.47;9.57;;;27.40;31.30;;;;;;4991424;28;20488;-76
2021/03/31 12:36:18;;;;;;;11.63;10.60;;;27.20;33.80;;;;;;4994082;28;20430;-74
2021/03/31 12:38:45;;;;;;;11.60;10.50;;;27.10;30.90;;;;;;4995097;28;20463;-74
2021/03/31 12:41:11;;;;;;;9.90;9.20;;;27.00;31.00;;;;;;5000746;28;20436;-74
2021/03/31 12:43:38;;;;;;;10.47;9.37;;;27.00;31.50;;;;;;5001843;28;20959;-74
2021/03/31 12:46:06;;;;;;;9.27;8.40;;;27.00;31.10;;;;;;4991738;28;20820;-74
2021/03/31 12:48:32;;;;;;;11.63;10.83;;;27.20;30.50;;;;;;5004139;28;20439;-75
2021/03/31 12:51:10;;;;;;;11.17;10.37;;;27.40;29.80;;;;;;4997041;28;20424;-75
2021/03/31 12:53:47;;;;;;;12.13;9.47;;;27.60;30.20;;;;;;4991633;28;20452;-74
2021/03/31 12:56:14;;;;;;;10.60;9.80;;;27.80;30.70;;;;;;4992775;28;20945;-74
2021/03/31 12:58:43;;;;;;;8.67;8.07;;;28.10;30.70;;;;;;4999395;28;20444;-74
2021/03/31 13:01:23;;;;;;;8.97;8.30;;;28.50;29.40;;;;;;5005418;28;21030;-74
2021/03/31 13:03:50;;;;;;;9.83;9.10;;;28.80;29.10;;;;;;4990344;28;21001;-74
2021/03/31 13:06:20;;;;;;;9.37;8.50;;;29.20;28.40;;;;;;5002347;28;20477;-75
2021/03/31 13:08:50;;;;;;;10.73;9.20;;;29.20;28.60;;;;;;5000865;28;20532;-74
2021/03/31 13:11:17;;;;;;;9.47;8.87;;;29.50;29.50;;;;;;4988822;28;20859;-75
2021/03/31 13:25:12;;;;;;;8.33;7.83;;;29.30;25.80;;;;;;4991697;28;20494;-74
2021/03/31 13:30:31;;;;;;;8.63;7.93;;;29.20;26.40;;;;;;4993989;28;20437;-74
2021/03/31 13:35:33;;;;;;;9.30;8.53;;;29.20;27.40;;;;;;4995007;28;20441;-74
2021/03/31 13:38:20;;;;;;;8.60;8.00;;;29.20;26.80;;;;;;4994600;28;20942;-75
2021/03/31 13:40:46;;;;;;;9.83;9.13;;;29.10;27.10;;;;;;4983309;28;20459;-75
2021/03/31 13:43:15;;;;;;;7.90;7.40;;;28.90;26.50;;;;;;4998511;28;21018;-74